createdAt,value
2022-10-26T00:01:11.888Z,16.25
2022-10-26T00:03:40.675Z,15.85
2022-10-26T00:06:29.034Z,12.15
2022-10-26T00:08:57.361Z,11.23
2022-10-26T00:11:25.001Z,11.98
2022-10-26T00:13:52.462Z,12.85
2022-10-26T00:16:26.969Z,14.63
2022-10-26T00:18:55.107Z,10.50
2022-10-26T00:21:22.692Z,9.65
2022-10-26T00:23:50.006Z,12.13
2022-10-26T00:26:17.455Z,16.83
2022-10-26T00:28:44.790Z,20.98
2022-10-26T00:31:16.232Z,14.30
2022-10-26T00:33:43.862Z,11.10
2022-10-26T00:36:13.863Z,5.65
2022-10-26T00:38:46.007Z,11.10
2022-10-26T00:41:21.743Z,12.48
2022-10-26T00:43:50.155Z,22.05
2022-10-26T00:46:22.613Z,11.70
2022-10-26T00:49:00.598Z,8.82
2022-10-26T00:51:42.376Z,12.95
2022-10-26T00:54:15.696Z,11.25
2022-10-26T00:56:43.114Z,10.25
2022-10-26T00:59:12.347Z,18.90
2022-10-26T01:01:43.310Z,12.02
2022-10-26T01:06:41.336Z,14.60
2022-10-26T01:09:10.160Z,10.18
2022-10-26T01:11:37.501Z,15.07
2022-10-26T01:14:08.840Z,15.88
2022-10-26T01:16:57.012Z,11.40
2022-10-26T01:19:30.401Z,8.40
2022-10-26T01:22:03.104Z,12.98
2022-10-26T01:24:36.368Z,10.48
2022-10-26T01:27:29.835Z,9.65
2022-10-26T01:29:57.175Z,9.57
2022-10-26T01:32:32.044Z,8.60
2022-10-26T01:35:14.681Z,8.77
2022-10-26T01:37:54.788Z,10.77
2022-10-26T01:40:31.137Z,8.45
2022-10-26T01:43:03.269Z,6.93
2022-10-26T01:45:32.202Z,13.40
2022-10-26T01:48:02.065Z,14.90
2022-10-26T01:50:30.134Z,8.82
2022-10-26T01:52:57.585Z,11.13
2022-10-26T01:55:33.991Z,12.50
2022-10-26T01:58:25.949Z,11.57
2022-10-26T02:01:12.422Z,10.82
2022-10-26T02:03:47.028Z,11.30
2022-10-26T02:06:29.448Z,10.98
2022-10-26T02:09:29.787Z,14.30
2022-10-26T02:11:58.344Z,9.07
2022-10-26T02:14:44.929Z,15.38
2022-10-26T02:17:29.921Z,12.52
2022-10-26T02:20:04.112Z,11.32
2022-10-26T02:22:41.540Z,13.52
2022-10-26T02:25:14.177Z,15.88
2022-10-26T02:27:47.927Z,10.40
2022-10-26T02:30:15.632Z,3.70
2022-10-26T02:32:47.919Z,20.50
2022-10-26T02:35:17.543Z,12.60
2022-10-26T02:37:47.584Z,11.68
2022-10-26T02:40:18.979Z,14.43
2022-10-26T02:42:47.576Z,9.90
2022-10-26T02:45:21.073Z,10.65
2022-10-26T02:47:49.137Z,10.85
2022-10-26T02:50:17.085Z,13.75
2022-10-26T02:52:50.659Z,11.80
2022-10-26T02:55:27.561Z,8.55
2022-10-26T02:57:59.726Z,7.53
2022-10-26T03:00:27.228Z,17.33
2022-10-26T03:02:58.088Z,17.45
2022-10-26T03:05:25.412Z,17.98
2022-10-26T03:07:53.604Z,12.73
2022-10-26T03:10:21.769Z,10.30
2022-10-26T03:12:49.598Z,10.43
2022-10-26T03:15:17.297Z,11.00
2022-10-26T03:17:44.778Z,12.85
2022-10-26T03:20:12.534Z,16.77
2022-10-26T03:22:39.960Z,15.25
2022-10-26T03:27:41.340Z,15.70
2022-10-26T03:30:09.467Z,20.40
2022-10-26T03:32:36.846Z,12.45
2022-10-26T03:35:04.922Z,9.93
2022-10-26T03:37:32.322Z,15.82
2022-10-26T03:39:59.637Z,11.27
2022-10-26T03:42:28.014Z,9.38
2022-10-26T03:44:55.374Z,9.88
2022-10-26T03:47:22.786Z,15.10
2022-10-26T03:49:50.151Z,14.02
2022-10-26T03:52:17.549Z,16.42
2022-10-26T03:54:44.907Z,13.75
2022-10-26T03:57:12.386Z,22.67
2022-10-26T03:59:40.033Z,22.42
2022-10-26T04:02:07.408Z,13.00
2022-10-26T04:04:34.855Z,22.33
2022-10-26T04:07:02.285Z,17.70
2022-10-26T04:09:29.636Z,19.00
2022-10-26T04:11:56.988Z,15.27
2022-10-26T04:14:24.345Z,14.13
2022-10-26T04:16:51.698Z,10.65
2022-10-26T04:19:19.051Z,13.55
2022-10-26T04:21:46.468Z,14.15
2022-10-26T04:24:13.898Z,14.45
2022-10-26T04:26:41.218Z,21.27
2022-10-26T04:29:09.310Z,18.55
2022-10-26T04:31:36.830Z,10.00
2022-10-26T04:34:04.225Z,11.98
2022-10-26T04:36:31.646Z,15.45
2022-10-26T04:38:58.980Z,14.00
2022-10-26T04:41:26.468Z,11.35
2022-10-26T04:43:53.822Z,11.88
2022-10-26T04:46:21.242Z,12.45
2022-10-26T04:48:49.175Z,14.35
2022-10-26T04:51:16.728Z,14.75
2022-10-26T04:53:44.112Z,17.15
2022-10-26T04:56:11.457Z,18.00
2022-10-26T04:58:38.797Z,12.20
2022-10-26T05:01:06.323Z,16.33
2022-10-26T05:03:33.797Z,13.95
2022-10-26T05:06:01.274Z,14.73
2022-10-26T05:08:30.002Z,13.30
2022-10-26T05:10:57.415Z,13.02
2022-10-26T05:13:28.404Z,17.20
2022-10-26T05:15:55.823Z,13.13
2022-10-26T05:18:23.341Z,16.60
2022-10-26T05:20:53.760Z,13.13
2022-10-26T05:23:22.047Z,16.17
2022-10-26T05:25:49.901Z,16.35
2022-10-26T05:28:18.852Z,19.73
2022-10-26T05:30:47.110Z,9.30
2022-10-26T05:33:15.113Z,14.27
2022-10-26T05:35:42.711Z,12.68
2022-10-26T05:38:15.291Z,12.50
2022-10-26T05:40:50.475Z,15.23
2022-10-26T05:43:18.671Z,17.42
2022-10-26T05:45:46.452Z,13.95
2022-10-26T05:48:13.883Z,9.43
2022-10-26T05:50:41.280Z,13.52
2022-10-26T05:53:08.805Z,12.93
2022-10-26T05:55:36.707Z,11.70
2022-10-26T05:58:04.288Z,12.57
2022-10-26T06:00:32.224Z,14.10
2022-10-26T06:03:08.419Z,15.40
2022-10-26T06:05:54.056Z,12.40
2022-10-26T06:08:23.729Z,13.05
2022-10-26T06:10:52.516Z,16.45
2022-10-26T06:13:20.513Z,13.35
2022-10-26T06:16:06.615Z,12.55
2022-10-26T06:19:02.043Z,9.35
2022-10-26T06:21:41.813Z,15.98
2022-10-26T06:24:44.239Z,11.60
2022-10-26T06:27:23.517Z,11.90
2022-10-26T06:30:10.163Z,18.58
2022-10-26T06:32:44.451Z,11.95
2022-10-26T06:35:45.222Z,12.38
2022-10-26T06:38:18.035Z,16.95
2022-10-26T06:40:49.457Z,11.90
2022-10-26T06:43:35.567Z,12.82
2022-10-26T06:46:26.070Z,15.60
2022-10-26T06:49:15.005Z,15.57
2022-10-26T06:52:06.650Z,14.75
2022-10-26T06:54:39.752Z,16.05
2022-10-26T06:57:11.306Z,16.15
2022-10-26T06:59:53.781Z,13.20
2022-10-26T07:02:21.374Z,7.75
2022-10-26T07:04:48.954Z,11.65
2022-10-26T07:07:20.204Z,15.55
2022-10-26T07:09:47.924Z,16.38
2022-10-26T07:12:15.476Z,13.30
2022-10-26T07:14:43.025Z,10.20
2022-10-26T07:17:10.716Z,10.57
2022-10-26T07:19:38.083Z,14.45
2022-10-26T07:22:05.480Z,15.10
2022-10-26T07:24:32.954Z,12.10
2022-10-26T07:27:00.367Z,14.25
2022-10-26T07:29:28.887Z,17.13
2022-10-26T07:31:56.528Z,9.25
2022-10-26T07:34:23.970Z,16.10
2022-10-26T07:36:51.737Z,14.15
2022-10-26T07:39:19.142Z,17.55
2022-10-26T07:41:47.283Z,14.82
2022-10-26T07:44:14.782Z,16.90
2022-10-26T07:46:42.175Z,14.23
2022-10-26T07:49:09.705Z,22.63
2022-10-26T07:51:37.462Z,14.38
2022-10-26T07:54:04.949Z,11.15
2022-10-26T07:56:32.434Z,13.40
2022-10-26T07:58:59.924Z,12.13
2022-10-26T08:01:27.484Z,13.48
2022-10-26T08:03:56.667Z,18.42
2022-10-26T08:06:24.660Z,12.15
2022-10-26T08:08:52.717Z,16.08
2022-10-26T08:11:21.163Z,14.30
2022-10-26T08:16:24.033Z,17.75
2022-10-26T08:18:52.132Z,13.10
2022-10-26T08:21:35.755Z,10.68
2022-10-26T08:24:04.306Z,12.40
2022-10-26T08:26:31.812Z,18.63
2022-10-26T08:28:59.193Z,13.52
2022-10-26T08:31:26.541Z,19.35
2022-10-26T08:33:53.965Z,12.82
2022-10-26T08:36:25.572Z,14.10
2022-10-26T08:38:53.127Z,17.75
2022-10-26T08:41:44.838Z,18.80
2022-10-26T08:44:24.212Z,12.38
2022-10-26T08:47:11.056Z,15.25
2022-10-26T08:50:11.372Z,14.80
2022-10-26T08:52:53.953Z,17.17
2022-10-26T08:55:26.941Z,19.70
2022-10-26T08:57:55.229Z,18.88
2022-10-26T09:00:25.208Z,18.30
2022-10-26T09:02:53.683Z,14.07
2022-10-26T09:05:55.691Z,13.65
2022-10-26T09:08:35.461Z,15.13
2022-10-26T09:11:17.029Z,16.73
2022-10-26T09:14:14.644Z,15.65
2022-10-26T09:16:53.106Z,18.75
2022-10-26T09:19:51.532Z,13.90
2022-10-26T09:22:31.613Z,19.30
2022-10-26T09:25:17.490Z,19.53
2022-10-26T09:27:49.738Z,12.68
2022-10-26T09:30:20.513Z,10.20
2022-10-26T09:32:54.747Z,15.50
2022-10-26T09:35:41.861Z,17.90
2022-10-26T09:38:33.464Z,16.13
2022-10-26T09:41:19.618Z,15.52
2022-10-26T09:43:58.010Z,15.15
2022-10-26T09:46:53.681Z,22.08
2022-10-26T09:49:26.663Z,14.20
2022-10-26T09:51:54.021Z,14.13
2022-10-26T09:54:22.018Z,14.18
2022-10-26T09:56:54.091Z,11.40
2022-10-26T09:59:24.112Z,15.85
2022-10-26T10:01:51.909Z,11.83
2022-10-26T10:04:28.284Z,15.02
2022-10-26T10:07:01.581Z,11.30
2022-10-26T10:09:29.039Z,11.00
2022-10-26T10:11:59.065Z,7.63
2022-10-26T10:14:30.095Z,8.50
2022-10-26T10:16:59.945Z,10.95
2022-10-26T10:19:33.548Z,11.70
2022-10-26T10:22:09.388Z,15.73
2022-10-26T10:24:40.079Z,13.30
2022-10-26T10:27:15.128Z,9.52
2022-10-26T10:29:52.668Z,14.35
2022-10-26T10:32:21.230Z,23.17
2022-10-26T10:34:50.500Z,16.13
2022-10-26T10:37:42.779Z,16.38
2022-10-26T10:40:20.511Z,8.35
2022-10-26T10:42:50.893Z,16.48
2022-10-26T10:45:27.786Z,19.20
2022-10-26T10:48:13.401Z,18.85
2022-10-26T10:51:02.299Z,11.93
2022-10-26T10:53:45.939Z,15.50
2022-10-26T10:56:31.529Z,11.25
2022-10-26T10:59:35.446Z,13.80
2022-10-26T11:02:34.730Z,25.23
2022-10-26T11:05:02.181Z,20.45
2022-10-26T11:07:31.461Z,15.98
2022-10-26T11:10:03.508Z,16.85
2022-10-26T11:15:30.056Z,14.10
2022-10-26T11:18:18.704Z,12.07
2022-10-26T11:20:52.517Z,8.70
2022-10-26T11:23:32.451Z,19.20
2022-10-26T11:26:10.025Z,17.63
2022-10-26T11:28:56.068Z,17.25
2022-10-26T11:31:39.599Z,11.52
2022-10-26T11:34:52.324Z,12.90
2022-10-26T11:37:30.275Z,15.07
2022-10-26T11:40:25.031Z,18.08
2022-10-26T11:43:15.558Z,15.40
2022-10-26T11:45:45.868Z,12.50
2022-10-26T11:48:30.441Z,11.35
2022-10-26T11:50:59.538Z,21.63
2022-10-26T11:53:34.393Z,17.42
2022-10-26T11:56:03.987Z,13.18
2022-10-26T11:58:33.171Z,16.88
2022-10-26T12:01:09.103Z,24.17
2022-10-26T12:03:46.109Z,17.58
2022-10-26T12:06:20.959Z,16.55
2022-10-26T12:08:55.119Z,12.23
2022-10-26T12:11:36.025Z,16.63
2022-10-26T12:16:39.718Z,16.77
2022-10-26T12:19:21.330Z,16.88
2022-10-26T12:21:50.763Z,20.02
2022-10-26T12:24:24.183Z,14.25
2022-10-26T12:26:55.954Z,19.17
2022-10-26T12:29:31.262Z,16.13
2022-10-26T12:31:59.015Z,19.90
2022-10-26T12:34:32.191Z,16.13
2022-10-26T12:36:59.515Z,19.08
2022-10-26T12:39:38.536Z,16.90
2022-10-26T12:42:05.838Z,19.10
2022-10-26T12:44:35.003Z,15.52
2022-10-26T12:47:03.336Z,11.32
2022-10-26T12:50:01.847Z,21.17
2022-10-26T12:52:42.965Z,15.43
2022-10-26T12:55:13.471Z,19.80
2022-10-26T12:57:43.965Z,13.70
2022-10-26T13:00:18.034Z,14.68
2022-10-26T13:03:06.354Z,13.77
2022-10-26T13:05:54.670Z,18.52
2022-10-26T13:08:22.106Z,20.58
2022-10-26T13:11:12.024Z,18.55
2022-10-26T13:13:41.302Z,16.35
2022-10-26T13:16:12.405Z,14.13
2022-10-26T13:18:45.211Z,13.13
2022-10-26T13:21:17.881Z,15.73
2022-10-26T13:24:01.705Z,15.02
2022-10-26T13:26:31.323Z,22.10
2022-10-26T13:29:03.651Z,13.18
2022-10-26T13:31:39.623Z,15.93
2022-10-26T13:34:12.868Z,18.85
2022-10-26T13:37:10.913Z,18.50
2022-10-26T13:39:47.272Z,11.70
2022-10-26T13:42:20.813Z,10.63
2022-10-26T13:44:53.901Z,21.98
2022-10-26T13:47:44.513Z,13.43
2022-10-26T13:50:19.751Z,20.60
2022-10-26T13:52:57.131Z,22.48
2022-10-26T13:55:35.725Z,15.27
2022-10-26T13:58:13.990Z,18.92
2022-10-26T14:01:23.758Z,13.38
2022-10-26T14:03:51.776Z,17.90
2022-10-26T14:06:25.052Z,15.20
2022-10-26T14:08:55.262Z,15.90
2022-10-26T14:11:36.954Z,11.68
2022-10-26T14:14:04.796Z,11.20
2022-10-26T14:16:34.463Z,10.55
2022-10-26T14:19:01.978Z,14.95
2022-10-26T14:21:30.030Z,19.55
2022-10-26T14:24:07.582Z,15.50
2022-10-26T14:26:41.848Z,15.85
2022-10-26T14:29:20.481Z,16.75
2022-10-26T14:31:49.924Z,13.38
2022-10-26T14:34:18.998Z,12.43
2022-10-26T14:36:50.545Z,19.40
2022-10-26T14:39:31.822Z,19.40
2022-10-26T14:42:01.636Z,16.40
2022-10-26T14:44:30.149Z,19.70
2022-10-26T14:46:57.611Z,17.73
2022-10-26T14:49:27.808Z,14.10
2022-10-26T14:52:06.359Z,15.73
2022-10-26T14:54:34.730Z,14.75
2022-10-26T14:57:08.614Z,20.77
2022-10-26T14:59:36.050Z,17.85
2022-10-26T15:02:22.010Z,27.30
2022-10-26T15:05:01.169Z,15.25
2022-10-26T15:07:37.500Z,19.50
2022-10-26T15:10:06.036Z,16.00
2022-10-26T15:12:38.588Z,22.35
2022-10-26T15:15:09.078Z,17.88
2022-10-26T15:17:40.138Z,27.92
2022-10-26T15:20:14.714Z,17.98
2022-10-26T15:22:43.581Z,13.18
2022-10-26T15:25:20.643Z,15.50
2022-10-26T15:27:51.427Z,13.77
2022-10-26T15:30:25.671Z,14.25
2022-10-26T15:32:54.900Z,14.45
2022-10-26T15:35:27.077Z,20.77
2022-10-26T15:37:56.043Z,18.70
2022-10-26T15:42:59.763Z,17.27
2022-10-26T15:45:34.105Z,16.50
2022-10-26T15:48:18.204Z,17.30
2022-10-26T15:50:45.606Z,16.75
2022-10-26T15:53:19.459Z,20.10
2022-10-26T15:55:47.814Z,16.58
2022-10-26T15:58:16.024Z,17.92
2022-10-26T16:00:43.547Z,20.40
2022-10-26T16:03:17.183Z,21.25
2022-10-26T16:05:45.007Z,21.67
2022-10-26T16:08:17.801Z,16.25
2022-10-26T16:10:46.557Z,24.30
2022-10-26T16:13:15.038Z,14.25
2022-10-26T16:15:42.836Z,23.88
2022-10-26T16:18:10.259Z,17.75
2022-10-26T16:20:37.960Z,14.50
2022-10-26T16:23:06.998Z,25.27
2022-10-26T16:25:40.410Z,22.17
2022-10-26T16:28:07.839Z,15.95
2022-10-26T16:30:36.968Z,19.23
2022-10-26T16:33:04.716Z,22.30
2022-10-26T16:35:32.116Z,16.20
2022-10-26T16:37:59.539Z,16.90
2022-10-26T16:40:27.068Z,18.55
2022-10-26T16:42:54.436Z,28.85
2022-10-26T16:45:21.804Z,18.92
2022-10-26T16:47:49.599Z,15.80
2022-10-26T16:50:20.508Z,24.70
2022-10-26T16:52:47.946Z,19.38
2022-10-26T16:55:15.645Z,19.85
2022-10-26T16:57:43.017Z,21.42
2022-10-26T17:00:10.889Z,19.15
2022-10-26T17:02:38.410Z,21.50
2022-10-26T17:05:07.371Z,22.02
2022-10-26T17:07:35.837Z,25.88
2022-10-26T17:10:04.396Z,20.75
2022-10-26T17:12:32.024Z,18.13
2022-10-26T17:15:00.597Z,24.40
2022-10-26T17:17:28.537Z,19.80
2022-10-26T17:19:56.368Z,20.65
2022-10-26T17:22:24.086Z,22.45
2022-10-26T17:24:51.411Z,15.55
2022-10-26T17:27:20.326Z,20.40
2022-10-26T17:29:48.129Z,22.42
2022-10-26T17:32:16.406Z,17.75
2022-10-26T17:34:43.852Z,30.48
2022-10-26T17:37:11.465Z,19.13
2022-10-26T17:39:38.816Z,26.50
2022-10-26T17:42:06.149Z,15.82
2022-10-26T17:44:38.926Z,22.88
2022-10-26T17:47:06.625Z,22.55
2022-10-26T17:49:36.171Z,20.67
2022-10-26T17:52:05.938Z,26.85
2022-10-26T17:54:33.498Z,21.42
2022-10-26T17:57:01.281Z,22.92
2022-10-26T17:59:30.412Z,19.25
2022-10-26T18:01:57.954Z,19.60
2022-10-26T18:04:25.376Z,18.80
2022-10-26T18:06:52.766Z,24.38
2022-10-26T18:09:20.159Z,21.40
2022-10-26T18:11:49.591Z,21.02
2022-10-26T18:14:19.541Z,21.80
2022-10-26T18:16:46.922Z,21.23
2022-10-26T18:19:14.302Z,23.92
2022-10-26T18:21:41.754Z,19.13
2022-10-26T18:24:09.629Z,16.17
2022-10-26T18:26:37.467Z,22.92
2022-10-26T18:29:05.527Z,23.48
2022-10-26T18:31:35.001Z,22.92
2022-10-26T18:34:04.103Z,24.92
2022-10-26T18:36:32.070Z,25.90
2022-10-26T18:38:59.760Z,18.42
2022-10-26T18:41:27.510Z,22.48
2022-10-26T18:43:58.989Z,23.05
2022-10-26T18:46:28.868Z,24.33
2022-10-26T18:48:58.208Z,23.48
2022-10-26T18:51:30.573Z,21.90
2022-10-26T18:53:58.984Z,20.05
2022-10-26T18:56:27.276Z,24.23
2022-10-26T18:58:59.488Z,25.95
2022-10-26T19:01:29.645Z,24.02
2022-10-26T19:04:00.068Z,25.50
2022-10-26T19:06:30.675Z,18.35
2022-10-26T19:08:58.496Z,15.50
2022-10-26T19:11:28.186Z,25.70
2022-10-26T19:13:55.950Z,25.63
2022-10-26T19:16:45.979Z,28.15
2022-10-26T19:19:14.452Z,20.08
2022-10-26T19:21:41.985Z,30.15
2022-10-26T19:24:20.921Z,27.15
2022-10-26T19:26:51.106Z,27.92
2022-10-26T19:29:19.013Z,33.30
2022-10-26T19:31:47.598Z,27.40
2022-10-26T19:34:16.074Z,28.33
2022-10-26T19:36:46.149Z,26.98
2022-10-26T19:39:15.439Z,28.90
2022-10-26T19:41:43.421Z,25.67
2022-10-26T19:44:12.144Z,24.88
2022-10-26T19:46:39.825Z,27.40
2022-10-26T19:49:07.567Z,24.27
2022-10-26T19:51:35.101Z,29.17
2022-10-26T19:54:04.387Z,33.92
2022-10-26T19:56:32.889Z,26.30
2022-10-26T19:59:01.003Z,27.30
2022-10-26T20:01:29.054Z,33.22
2022-10-26T20:03:57.255Z,26.67
2022-10-26T20:06:24.813Z,28.30
2022-10-26T20:08:52.277Z,30.95
2022-10-26T20:11:19.790Z,29.73
2022-10-26T20:13:48.103Z,30.73
2022-10-26T20:16:16.923Z,21.58
2022-10-26T20:18:47.761Z,25.38
2022-10-26T20:21:17.493Z,26.95
2022-10-26T20:23:45.396Z,33.55
2022-10-26T20:26:19.132Z,38.97
2022-10-26T20:28:53.257Z,24.25
2022-10-26T20:31:20.618Z,38.80
2022-10-26T20:33:55.572Z,22.45
2022-10-26T20:36:22.968Z,29.63
2022-10-26T20:38:51.581Z,28.42
2022-10-26T20:41:19.673Z,25.52
2022-10-26T20:43:47.779Z,17.77
2022-10-26T20:46:26.566Z,25.23
2022-10-26T20:48:54.556Z,31.80
2022-10-26T20:51:56.654Z,31.42
2022-10-26T20:54:39.127Z,25.73
2022-10-26T20:57:12.671Z,29.92
2022-10-26T20:59:46.310Z,24.48
2022-10-26T21:02:13.705Z,31.90
2022-10-26T21:04:41.120Z,27.90
2022-10-26T21:07:08.784Z,30.15
2022-10-26T21:09:36.796Z,28.40
2022-10-26T21:12:05.037Z,34.28
2022-10-26T21:14:36.670Z,23.38
2022-10-26T21:17:04.027Z,28.67
2022-10-26T21:19:31.392Z,23.77
2022-10-26T21:21:58.784Z,25.27
2022-10-26T21:24:26.171Z,36.60
2022-10-26T21:26:53.544Z,30.70
2022-10-26T21:29:20.916Z,25.85
2022-10-26T21:31:48.335Z,33.15
2022-10-26T21:34:15.904Z,32.08
2022-10-26T21:36:43.525Z,27.42
2022-10-26T21:39:11.438Z,32.53
2022-10-26T21:41:38.869Z,29.88
2022-10-26T21:44:09.155Z,31.42
2022-10-26T21:46:40.468Z,27.63
2022-10-26T21:49:07.834Z,26.83
2022-10-26T21:51:35.566Z,30.45
2022-10-26T21:54:03.913Z,25.05
2022-10-26T21:56:31.324Z,27.65
2022-10-26T21:59:00.211Z,20.67
2022-10-26T22:01:27.931Z,25.33
2022-10-26T22:03:56.189Z,18.02
2022-10-26T22:06:23.689Z,34.85
2022-10-26T22:08:51.155Z,29.77
2022-10-26T22:11:21.760Z,36.70
2022-10-26T22:13:50.443Z,24.13
2022-10-26T22:16:26.754Z,27.48
2022-10-26T22:18:56.153Z,28.83
2022-10-26T22:21:25.875Z,22.20
2022-10-26T22:23:54.096Z,27.42
2022-10-26T22:26:23.627Z,23.30
2022-10-26T22:28:53.095Z,30.85
2022-10-26T22:31:26.908Z,24.88
2022-10-26T22:33:56.293Z,25.45
2022-10-26T22:36:24.733Z,30.85
2022-10-26T22:38:53.002Z,28.58
2022-10-26T22:41:21.824Z,23.23
2022-10-26T22:43:50.840Z,31.70
2022-10-26T22:46:26.620Z,21.70
2022-10-26T22:48:59.116Z,28.15
2022-10-26T22:51:31.935Z,18.25
2022-10-26T22:54:01.678Z,22.98
2022-10-26T22:56:30.617Z,27.73
2022-10-26T22:58:58.523Z,19.45
2022-10-26T23:01:28.869Z,13.25
2022-10-26T23:03:56.582Z,25.70
2022-10-26T23:06:26.784Z,26.30
2022-10-26T23:08:54.159Z,33.70
2022-10-26T23:11:23.497Z,22.70
2022-10-26T23:13:54.961Z,25.13
2022-10-26T23:16:22.543Z,20.70
2022-10-26T23:18:50.087Z,21.88
2022-10-26T23:21:17.962Z,19.40
2022-10-26T23:23:45.825Z,18.85
2022-10-26T23:26:18.669Z,20.42
2022-10-26T23:28:46.558Z,18.83
2022-10-26T23:31:26.187Z,17.40
2022-10-26T23:33:55.694Z,20.13
2022-10-26T23:36:23.614Z,22.25
2022-10-26T23:38:51.045Z,27.90
2022-10-26T23:41:18.471Z,18.27
2022-10-26T23:43:45.932Z,26.92
2022-10-26T23:46:13.471Z,18.38
2022-10-26T23:48:41.147Z,22.25
2022-10-26T23:51:08.476Z,25.33
2022-10-26T23:53:36.006Z,18.17
2022-10-26T23:56:03.464Z,17.05
2022-10-26T23:58:30.937Z,17.70
